Cordele, Georgia
Current Conditions -  °F | °C
As of 9:35 AM on Friday 28 Nov 2014 (Local Time) from KCKF Reporting Station
Clear Clear  
Wind Chill: 34°   Ceiling: Unl
Heat Index: 40°   Visibility: 10mi
Dew Point: 26°   Wind: 8mph
Humidity: 59%   Direction: 30°NNE
Pressure: 30.43"   Gusts: NA
Location:  31.97°N, 83.78°W
Report Text: KCKF 281435Z AUTO 03007KT 10SM CLR 04/M03 A3043 RMK AO2 T00431032
Loading
Personal Weather Stations






























Interactive Weather Map New forecast layout! Learn more

10-Day Weather Forecast

Advertisements
Track Severe Weather on mobile